createdAt,value
2022-09-28T00:02:25.655Z,9.86
2022-09-28T00:04:52.591Z,9.86
2022-09-28T00:07:19.564Z,9.89
2022-09-28T00:09:46.430Z,9.91
2022-09-28T00:12:13.188Z,9.88
2022-09-28T00:14:44.714Z,9.83
2022-09-28T00:17:12.417Z,9.84
2022-09-28T00:19:40.422Z,9.79
2022-09-28T00:22:07.468Z,9.80
2022-09-28T00:24:34.537Z,9.79
2022-09-28T00:27:02.888Z,9.77
2022-09-28T00:29:29.969Z,9.78
2022-09-28T00:32:00.593Z,9.77
2022-09-28T00:34:27.861Z,9.76
2022-09-28T00:36:54.634Z,9.75
2022-09-28T00:39:21.715Z,9.74
2022-09-28T00:41:49.613Z,9.74
2022-09-28T00:44:25.392Z,9.70
2022-09-28T00:47:01.320Z,9.74
2022-09-28T00:50:00.150Z,9.70
2022-09-28T00:52:39.545Z,9.68
2022-09-28T00:55:11.944Z,9.68
2022-09-28T00:57:43.734Z,9.66
2022-09-28T01:00:11.508Z,9.65
2022-09-28T01:02:39.377Z,9.64
2022-09-28T01:05:10.363Z,9.64
2022-09-28T01:07:38.232Z,9.62
2022-09-28T01:10:06.166Z,9.60
2022-09-28T01:12:33.220Z,9.59
2022-09-28T01:15:01.933Z,9.53
2022-09-28T01:17:49.259Z,9.53
2022-09-28T01:20:16.866Z,9.53
2022-09-28T01:22:58.698Z,9.52
2022-09-28T01:25:54.212Z,9.50
2022-09-28T01:28:27.716Z,9.52
2022-09-28T01:31:03.342Z,9.52
2022-09-28T01:33:39.428Z,9.52
2022-09-28T01:36:12.805Z,9.50
2022-09-28T01:39:08.578Z,9.49
2022-09-28T01:41:38.150Z,9.48
2022-09-28T01:44:08.816Z,9.51
2022-09-28T01:46:44.609Z,9.50
2022-09-28T01:49:16.201Z,9.52
2022-09-28T01:52:01.221Z,9.53
2022-09-28T01:54:51.753Z,9.50
2022-09-28T01:57:39.912Z,9.47
2022-09-28T02:00:10.728Z,9.49
2022-09-28T02:02:54.625Z,9.46
2022-09-28T02:05:34.952Z,9.41
2022-09-28T02:08:13.780Z,9.45
2022-09-28T02:10:56.148Z,9.47
2022-09-28T02:13:47.125Z,9.49
2022-09-28T02:16:21.617Z,9.46
2022-09-28T02:18:49.920Z,9.46
2022-09-28T02:21:28.156Z,9.45
2022-09-28T02:24:03.358Z,9.45
2022-09-28T02:26:36.075Z,9.44
2022-09-28T02:29:03.371Z,9.41
2022-09-28T02:31:31.173Z,9.41
2022-09-28T02:33:59.233Z,9.40
2022-09-28T02:36:28.416Z,9.38
2022-09-28T02:38:57.281Z,9.38
2022-09-28T02:41:48.498Z,9.36
2022-09-28T02:44:31.870Z,9.37
2022-09-28T02:47:09.855Z,9.36
2022-09-28T02:49:46.243Z,9.41
2022-09-28T02:53:05.145Z,9.37
2022-09-28T02:55:40.964Z,9.32
2022-09-28T02:58:16.793Z,9.31
2022-09-28T03:01:48.408Z,9.33
2022-09-28T03:04:37.385Z,9.30
2022-09-28T03:07:30.311Z,9.29
2022-09-28T03:10:22.207Z,9.27
2022-09-28T03:12:50.444Z,9.29
2022-09-28T03:15:32.497Z,9.30
2022-09-28T03:18:00.630Z,9.27
2022-09-28T03:20:28.865Z,9.25
2022-09-28T03:23:22.688Z,9.26
2022-09-28T03:25:42.962Z,9.29
2022-09-28T03:28:09.743Z,9.32
2022-09-28T03:30:39.522Z,9.29
2022-09-28T03:33:07.067Z,9.31
2022-09-28T03:35:34.265Z,9.27
2022-09-28T03:38:01.080Z,9.29
2022-09-28T03:40:30.108Z,9.29
2022-09-28T03:42:57.080Z,9.33
2022-09-28T03:45:23.830Z,9.29
2022-09-28T03:47:51.988Z,9.33
2022-09-28T03:50:19.108Z,9.35
2022-09-28T03:52:46.086Z,9.33
2022-09-28T03:55:12.909Z,9.37
2022-09-28T03:57:39.939Z,9.32
2022-09-28T04:00:07.447Z,9.33
2022-09-28T04:02:40.598Z,9.38
2022-09-28T04:05:09.333Z,9.35
2022-09-28T04:07:37.717Z,9.35
2022-09-28T04:10:04.809Z,9.36
2022-09-28T04:12:31.610Z,9.33
2022-09-28T04:14:58.404Z,9.35
2022-09-28T04:17:25.192Z,9.34
2022-09-28T04:19:52.433Z,9.31
2022-09-28T04:22:40.660Z,9.30
2022-09-28T04:25:08.771Z,9.31
2022-09-28T04:27:54.936Z,9.33
2022-09-28T04:30:22.057Z,9.33
2022-09-28T04:32:49.083Z,9.36
2022-09-28T04:35:16.896Z,9.34
2022-09-28T04:37:43.698Z,9.32
2022-09-28T04:40:11.351Z,9.32
2022-09-28T04:42:38.241Z,9.34
2022-09-28T04:45:05.599Z,9.34
2022-09-28T04:47:35.617Z,9.36
2022-09-28T04:50:20.908Z,9.36
2022-09-28T04:53:06.071Z,9.34
2022-09-28T04:55:32.939Z,9.35
2022-09-28T04:58:03.557Z,9.36
2022-09-28T05:00:35.343Z,9.35
2022-09-28T05:03:28.631Z,9.36
2022-09-28T05:06:15.901Z,9.38
2022-09-28T05:08:47.712Z,9.39
2022-09-28T05:11:15.691Z,9.37
2022-09-28T05:13:45.422Z,9.37
2022-09-28T05:16:16.249Z,9.40
2022-09-28T05:19:03.502Z,9.40
2022-09-28T05:21:30.861Z,9.42
2022-09-28T05:23:58.376Z,9.39
2022-09-28T05:26:25.781Z,9.38
2022-09-28T05:28:52.692Z,9.36
2022-09-28T05:31:54.684Z,9.36
2022-09-28T05:34:56.988Z,9.35
2022-09-28T05:37:29.101Z,9.36
2022-09-28T05:39:57.700Z,9.38
2022-09-28T05:42:25.652Z,9.39
2022-09-28T05:44:53.124Z,9.39
2022-09-28T05:47:20.015Z,9.37
2022-09-28T05:49:46.959Z,9.38
2022-09-28T05:52:14.175Z,9.38
2022-09-28T05:54:41.215Z,9.40
2022-09-28T05:57:08.015Z,9.40
2022-09-28T05:59:37.663Z,9.40
2022-09-28T06:02:06.032Z,9.40
2022-09-28T06:04:33.500Z,9.38
2022-09-28T06:07:00.300Z,9.40
2022-09-28T06:09:27.587Z,9.39
2022-09-28T06:12:10.971Z,9.40
2022-09-28T06:14:42.895Z,9.38
2022-09-28T06:17:10.935Z,9.39
2022-09-28T06:19:39.092Z,9.39
2022-09-28T06:22:24.856Z,9.40
2022-09-28T06:24:59.418Z,9.39
2022-09-28T06:27:26.368Z,9.39
2022-09-28T06:29:53.528Z,9.38
2022-09-28T06:32:20.408Z,9.39
2022-09-28T06:34:54.015Z,9.42
2022-09-28T06:37:26.011Z,9.41
2022-09-28T06:39:54.015Z,9.40
2022-09-28T06:42:21.043Z,9.42
2022-09-28T06:45:21.850Z,9.41
2022-09-28T06:48:24.045Z,9.42
2022-09-28T06:50:51.009Z,9.45
2022-09-28T06:53:43.665Z,9.42
2022-09-28T06:56:32.679Z,9.44
2022-09-28T06:59:00.105Z,9.42
2022-09-28T07:01:28.422Z,9.44
2022-09-28T07:04:08.689Z,9.44
2022-09-28T07:06:54.396Z,9.45
2022-09-28T07:09:44.990Z,9.46
2022-09-28T07:12:35.898Z,9.45
2022-09-28T07:15:23.643Z,9.48
2022-09-28T07:18:00.425Z,9.47
2022-09-28T07:20:29.815Z,9.49
2022-09-28T07:23:09.013Z,9.49
2022-09-28T07:26:06.544Z,9.51
2022-09-28T07:28:44.017Z,9.53
2022-09-28T07:31:29.722Z,9.52
2022-09-28T07:34:18.589Z,9.55
2022-09-28T07:36:59.801Z,9.56
2022-09-28T07:39:26.668Z,9.57
2022-09-28T07:41:56.673Z,9.59
2022-09-28T07:44:27.942Z,9.61
2022-09-28T07:46:54.753Z,9.63
2022-09-28T07:49:35.342Z,9.62
2022-09-28T07:52:26.175Z,9.66
2022-09-28T07:55:19.516Z,9.67
2022-09-28T07:57:48.349Z,9.71
2022-09-28T08:00:24.222Z,9.71
2022-09-28T08:02:51.542Z,9.71
2022-09-28T08:05:22.706Z,9.77
2022-09-28T08:07:49.649Z,9.79
2022-09-28T08:10:17.580Z,9.79
2022-09-28T08:12:44.473Z,9.81
2022-09-28T08:15:13.993Z,9.80
2022-09-28T08:18:16.212Z,9.80
2022-09-28T08:21:01.630Z,9.81
2022-09-28T08:23:28.663Z,9.85
2022-09-28T08:25:55.632Z,9.85
2022-09-28T08:28:24.493Z,9.88
2022-09-28T08:30:54.467Z,9.88
2022-09-28T08:33:42.136Z,9.85
2022-09-28T08:36:47.362Z,9.88
2022-09-28T08:39:34.672Z,9.85
2022-09-28T08:42:33.785Z,9.90
2022-09-28T08:45:23.442Z,9.91
2022-09-28T08:48:45.717Z,9.94
2022-09-28T08:51:49.650Z,9.95
2022-09-28T08:54:46.784Z,9.96
2022-09-28T08:57:45.149Z,10.00
2022-09-28T09:00:21.367Z,10.03
2022-09-28T09:02:49.101Z,10.06
2022-09-28T09:05:20.461Z,10.06
2022-09-28T09:08:44.832Z,10.11
2022-09-28T09:11:38.419Z,10.12
2022-09-28T09:14:24.216Z,10.13
2022-09-28T09:17:00.873Z,10.14
2022-09-28T09:19:53.424Z,10.14
2022-09-28T09:22:47.380Z,10.16
2022-09-28T09:25:28.301Z,10.18
2022-09-28T09:28:24.496Z,10.19
2022-09-28T09:31:03.535Z,10.21
2022-09-28T09:33:52.159Z,10.26
2022-09-28T09:37:02.051Z,10.27
2022-09-28T09:40:03.883Z,10.30
2022-09-28T09:43:29.485Z,10.34
2022-09-28T09:46:54.342Z,10.33
2022-09-28T09:49:56.619Z,10.39
2022-09-28T09:52:26.326Z,10.39
2022-09-28T09:55:18.543Z,10.43
2022-09-28T09:58:01.005Z,10.48
2022-09-28T10:00:34.077Z,10.48
2022-09-28T10:03:41.317Z,10.49
2022-09-28T10:06:36.603Z,10.51
2022-09-28T10:09:10.088Z,10.56
2022-09-28T10:11:43.257Z,10.56
2022-09-28T10:14:17.513Z,10.57
2022-09-28T10:17:05.336Z,10.58
2022-09-28T10:19:54.074Z,10.60
2022-09-28T10:22:40.804Z,10.62
2022-09-28T10:25:12.980Z,10.60
2022-09-28T10:27:46.604Z,10.59
2022-09-28T10:30:19.135Z,10.59
2022-09-28T10:32:49.027Z,10.60
2022-09-28T10:35:24.189Z,10.59
2022-09-28T10:38:04.692Z,10.60
2022-09-28T10:40:59.782Z,10.62
2022-09-28T10:43:50.707Z,10.63
2022-09-28T10:46:23.906Z,10.66
2022-09-28T10:49:00.196Z,10.67
2022-09-28T10:51:51.792Z,10.67
2022-09-28T10:54:30.198Z,10.69
2022-09-28T10:56:59.929Z,10.70
2022-09-28T10:59:48.189Z,10.70
2022-09-28T11:02:36.733Z,10.72
2022-09-28T11:05:22.849Z,10.72
2022-09-28T11:07:52.750Z,10.71
2022-09-28T11:10:30.355Z,10.70
2022-09-28T11:13:17.486Z,10.69
2022-09-28T11:15:53.453Z,10.70
2022-09-28T11:18:32.277Z,10.69
2022-09-28T11:21:12.774Z,10.69
2022-09-28T11:24:06.530Z,10.71
2022-09-28T11:26:42.428Z,10.70
2022-09-28T11:29:37.679Z,10.72
2022-09-28T11:32:16.444Z,10.72
2022-09-28T11:35:06.661Z,10.75
2022-09-28T11:37:59.501Z,10.77
2022-09-28T11:41:21.627Z,10.78
2022-09-28T11:43:57.637Z,10.79
2022-09-28T11:47:01.932Z,10.80
2022-09-28T11:49:35.738Z,10.79
2022-09-28T11:52:10.454Z,10.82
2022-09-28T11:54:52.604Z,10.80
2022-09-28T11:57:24.576Z,10.80
2022-09-28T11:59:58.266Z,10.81
2022-09-28T12:02:32.075Z,10.81
2022-09-28T12:05:20.835Z,10.83
2022-09-28T12:07:56.850Z,10.84
2022-09-28T12:10:48.211Z,10.82
2022-09-28T12:13:26.806Z,10.83
2022-09-28T12:16:23.510Z,10.83
2022-09-28T12:19:27.032Z,10.82
2022-09-28T12:21:57.663Z,10.83
2022-09-28T12:24:40.365Z,10.83
2022-09-28T12:27:10.001Z,10.85
2022-09-28T12:29:58.570Z,10.86
2022-09-28T12:32:49.885Z,10.85
2022-09-28T12:35:40.803Z,10.87
2022-09-28T12:39:08.444Z,10.89
2022-09-28T12:42:02.572Z,10.92
2022-09-28T12:45:04.580Z,10.93
2022-09-28T12:47:52.974Z,10.96
2022-09-28T12:50:54.493Z,11.01
2022-09-28T12:53:54.509Z,11.05
2022-09-28T12:56:35.765Z,11.02
2022-09-28T12:59:05.280Z,11.05
2022-09-28T13:01:48.051Z,11.05
2022-09-28T13:04:35.158Z,11.07
2022-09-28T13:07:23.216Z,11.07
2022-09-28T13:09:58.409Z,11.07
2022-09-28T13:12:46.685Z,11.09
2022-09-28T13:15:37.854Z,11.13
2022-09-28T13:18:10.833Z,11.13
2022-09-28T13:20:44.300Z,11.18
2022-09-28T13:23:17.736Z,11.17
2022-09-28T13:26:11.715Z,11.17
2022-09-28T13:28:39.854Z,11.20
2022-09-28T13:31:08.798Z,11.23
2022-09-28T13:33:39.642Z,11.24
2022-09-28T13:36:25.796Z,11.23
2022-09-28T13:38:54.604Z,11.26
2022-09-28T13:41:32.207Z,11.26
2022-09-28T13:44:10.994Z,11.28
2022-09-28T13:47:20.544Z,11.29
2022-09-28T13:50:15.829Z,11.30
2022-09-28T13:52:51.753Z,11.30
2022-09-28T13:55:51.064Z,11.32
2022-09-28T13:58:32.042Z,11.33
2022-09-28T14:01:04.631Z,11.33
2022-09-28T14:04:08.926Z,11.34
2022-09-28T14:06:36.664Z,11.34
2022-09-28T14:09:06.429Z,11.36
2022-09-28T14:11:36.812Z,11.36
2022-09-28T14:14:24.569Z,11.39
2022-09-28T14:17:14.112Z,11.38
2022-09-28T14:19:42.508Z,11.38
2022-09-28T14:22:27.256Z,11.39
2022-09-28T14:25:00.461Z,11.40
2022-09-28T14:27:36.159Z,11.39
2022-09-28T14:30:44.937Z,11.42
2022-09-28T14:33:20.970Z,11.43
2022-09-28T14:36:38.824Z,11.44
2022-09-28T14:39:44.156Z,11.44
2022-09-28T14:42:20.942Z,11.46
2022-09-28T14:45:06.328Z,11.45
2022-09-28T14:47:44.740Z,11.46
2022-09-28T14:50:20.322Z,11.46
2022-09-28T14:52:53.732Z,11.52
2022-09-28T14:55:30.895Z,11.48
2022-09-28T14:57:59.219Z,11.46
2022-09-28T15:00:30.406Z,11.47
2022-09-28T15:03:03.233Z,11.46
2022-09-28T15:05:38.249Z,11.45
2022-09-28T15:08:08.033Z,11.46
2022-09-28T15:10:39.332Z,11.46
2022-09-28T15:13:16.659Z,11.46
2022-09-28T15:15:46.829Z,11.46
2022-09-28T15:18:35.805Z,11.47
2022-09-28T15:21:02.822Z,11.46
2022-09-28T15:23:40.867Z,11.45
2022-09-28T15:26:21.909Z,11.47
2022-09-28T15:28:49.085Z,11.51
2022-09-28T15:31:22.132Z,11.49
2022-09-28T15:34:08.417Z,11.49
2022-09-28T15:36:42.634Z,11.49
2022-09-28T15:39:18.908Z,11.51
2022-09-28T15:41:47.301Z,11.51
2022-09-28T15:44:33.019Z,11.49
2022-09-28T15:47:16.655Z,11.49
2022-09-28T15:49:59.251Z,11.49
2022-09-28T15:52:34.203Z,11.52
2022-09-28T15:55:05.404Z,11.48
2022-09-28T15:57:38.507Z,11.49
2022-09-28T16:00:28.236Z,11.49
2022-09-28T16:03:07.008Z,11.52
2022-09-28T16:06:05.133Z,11.54
2022-09-28T16:08:45.867Z,11.53
2022-09-28T16:11:26.283Z,11.53
2022-09-28T16:14:06.215Z,11.52
2022-09-28T16:16:43.315Z,11.54
2022-09-28T16:19:36.878Z,11.52
2022-09-28T16:22:13.790Z,11.54
2022-09-28T16:24:40.727Z,11.55
2022-09-28T16:27:26.733Z,11.56
2022-09-28T16:30:15.554Z,11.57
2022-09-28T16:32:53.118Z,11.55
2022-09-28T16:35:25.937Z,11.55
2022-09-28T16:38:03.433Z,11.56
2022-09-28T16:40:32.218Z,11.58
2022-09-28T16:43:03.335Z,11.58
2022-09-28T16:45:30.244Z,11.58
2022-09-28T16:47:57.955Z,11.57
2022-09-28T16:50:25.875Z,11.58
2022-09-28T16:53:21.763Z,11.59
2022-09-28T16:55:49.867Z,11.58
2022-09-28T16:58:16.837Z,11.58
2022-09-28T17:00:43.624Z,11.58
2022-09-28T17:03:14.921Z,11.59
2022-09-28T17:05:42.074Z,11.58
2022-09-28T17:08:14.789Z,11.58
2022-09-28T17:11:14.760Z,11.60
2022-09-28T17:13:45.231Z,11.59
2022-09-28T17:16:16.131Z,11.59
2022-09-28T17:18:43.312Z,11.59
2022-09-28T17:21:16.932Z,11.58
2022-09-28T17:23:44.606Z,11.58
2022-09-28T17:26:34.546Z,11.61
2022-09-28T17:29:01.997Z,11.62
2022-09-28T17:31:30.155Z,11.61
2022-09-28T17:33:56.968Z,11.60
2022-09-28T17:36:25.776Z,11.60
2022-09-28T17:38:52.811Z,11.60
2022-09-28T17:41:21.223Z,11.62
2022-09-28T17:43:48.806Z,11.64
2022-09-28T17:46:33.548Z,11.63
2022-09-28T17:49:02.799Z,11.63
2022-09-28T17:51:34.642Z,11.62
2022-09-28T17:54:02.200Z,11.63
2022-09-28T17:56:32.117Z,11.64
2022-09-28T17:59:19.076Z,11.64
2022-09-28T18:01:46.112Z,11.67
2022-09-28T18:04:33.393Z,11.66
2022-09-28T18:07:00.415Z,11.63
2022-09-28T18:09:27.198Z,11.72
2022-09-28T18:12:01.054Z,11.74
2022-09-28T18:14:28.562Z,11.71
2022-09-28T18:16:55.505Z,11.70
2022-09-28T18:19:22.389Z,11.69
2022-09-28T18:21:49.192Z,11.67
2022-09-28T18:24:16.235Z,11.69
2022-09-28T18:26:43.049Z,11.76
2022-09-28T18:29:10.709Z,11.76
2022-09-28T18:31:37.462Z,11.74
2022-09-28T18:34:04.357Z,11.72
2022-09-28T18:36:32.544Z,11.72
2022-09-28T18:39:00.996Z,11.72
2022-09-28T18:41:28.483Z,11.73
2022-09-28T18:44:00.717Z,11.74
2022-09-28T18:46:29.030Z,11.72
2022-09-28T18:48:56.247Z,11.74
2022-09-28T18:51:23.663Z,11.73
2022-09-28T18:53:50.607Z,11.75
2022-09-28T18:56:18.367Z,11.74
2022-09-28T18:58:46.711Z,11.74
2022-09-28T19:01:33.007Z,11.75
2022-09-28T19:04:01.074Z,11.75
2022-09-28T19:06:29.869Z,11.74
2022-09-28T19:08:57.578Z,11.73
2022-09-28T19:11:25.412Z,11.75
2022-09-28T19:13:54.288Z,11.76
2022-09-28T19:16:24.330Z,11.75
2022-09-28T19:18:52.468Z,11.75
2022-09-28T19:21:19.896Z,11.76
2022-09-28T19:23:49.727Z,11.75
2022-09-28T19:26:20.938Z,11.76
2022-09-28T19:28:48.240Z,11.74
2022-09-28T19:31:15.060Z,11.75
2022-09-28T19:33:42.107Z,11.75
2022-09-28T19:36:12.206Z,11.76
2022-09-28T19:38:40.274Z,11.75
2022-09-28T19:41:12.249Z,11.76
2022-09-28T19:43:42.340Z,11.76
2022-09-28T19:46:09.388Z,11.76
2022-09-28T19:48:36.246Z,11.77
2022-09-28T19:51:05.709Z,11.76
2022-09-28T19:53:36.621Z,11.78
2022-09-28T19:56:05.674Z,11.79
2022-09-28T19:58:36.633Z,11.78
2022-09-28T20:01:07.248Z,11.79
2022-09-28T20:03:34.537Z,11.81
2022-09-28T20:06:02.021Z,11.81
2022-09-28T20:08:32.087Z,11.79
2022-09-28T20:10:59.877Z,11.82
2022-09-28T20:13:31.766Z,11.82
2022-09-28T20:16:10.276Z,11.82
2022-09-28T20:18:39.377Z,11.82
2022-09-28T20:21:08.348Z,11.81
2022-09-28T20:23:38.356Z,11.82
2022-09-28T20:26:06.446Z,11.81
2022-09-28T20:28:33.326Z,11.82
2022-09-28T20:31:08.354Z,11.83
2022-09-28T20:33:36.317Z,11.82
2022-09-28T20:36:07.084Z,11.83
2022-09-28T20:38:34.284Z,11.83
2022-09-28T20:41:01.752Z,11.84
2022-09-28T20:43:32.236Z,11.83
2022-09-28T20:45:59.209Z,11.85
2022-09-28T20:48:26.229Z,11.84
2022-09-28T20:51:11.600Z,11.85
2022-09-28T20:53:39.784Z,11.85
2022-09-28T20:56:10.979Z,11.85
2022-09-28T20:58:41.221Z,11.85
2022-09-28T21:01:14.723Z,11.86
2022-09-28T21:03:47.011Z,11.84
2022-09-28T21:06:15.340Z,11.86
2022-09-28T21:08:42.555Z,11.88
2022-09-28T21:11:09.376Z,11.88
2022-09-28T21:13:36.177Z,11.88
2022-09-28T21:16:04.056Z,11.89
2022-09-28T21:18:30.888Z,11.89
2022-09-28T21:20:57.772Z,11.88
2022-09-28T21:23:25.196Z,11.90
2022-09-28T21:26:07.727Z,11.91
2022-09-28T21:28:36.104Z,11.90
2022-09-28T21:31:07.762Z,11.90
2022-09-28T21:33:34.821Z,11.90
2022-09-28T21:36:03.061Z,11.91
2022-09-28T21:38:30.399Z,11.91
2022-09-28T21:40:58.645Z,11.92
2022-09-28T21:43:26.759Z,11.92
2022-09-28T21:45:55.241Z,11.92
2022-09-28T21:48:23.662Z,11.92
2022-09-28T21:51:04.737Z,11.92
2022-09-28T21:53:33.973Z,11.92
2022-09-28T21:56:02.166Z,11.91
2022-09-28T21:58:30.916Z,11.92
2022-09-28T22:01:05.714Z,11.92
2022-09-28T22:03:34.176Z,11.93
2022-09-28T22:06:01.415Z,11.93
2022-09-28T22:08:28.617Z,11.93
2022-09-28T22:11:06.880Z,11.96
2022-09-28T22:13:35.970Z,11.93
2022-09-28T22:16:03.373Z,11.94
2022-09-28T22:18:31.600Z,11.94
2022-09-28T22:21:02.976Z,11.94
2022-09-28T22:23:30.597Z,11.93
2022-09-28T22:25:59.521Z,11.93
2022-09-28T22:28:26.592Z,11.93
2022-09-28T22:30:53.615Z,11.93
2022-09-28T22:33:20.548Z,11.96
2022-09-28T22:35:49.211Z,11.97
2022-09-28T22:38:16.057Z,11.96
2022-09-28T22:40:48.075Z,11.97
2022-09-28T22:43:15.613Z,11.98
2022-09-28T22:45:42.820Z,11.98
2022-09-28T22:48:10.286Z,11.98
2022-09-28T22:50:38.392Z,11.99
2022-09-28T22:53:06.435Z,11.99
2022-09-28T22:55:34.032Z,11.98
2022-09-28T22:58:02.004Z,11.98
2022-09-28T23:00:30.733Z,11.99
2022-09-28T23:02:57.675Z,12.01
2022-09-28T23:05:24.542Z,12.01
2022-09-28T23:07:51.417Z,12.00
2022-09-28T23:10:18.221Z,11.98
2022-09-28T23:12:45.015Z,11.99
2022-09-28T23:15:11.803Z,11.99
2022-09-28T23:17:38.649Z,11.99
2022-09-28T23:20:06.074Z,12.00
2022-09-28T23:22:33.208Z,11.99
2022-09-28T23:24:59.972Z,12.01
2022-09-28T23:27:26.840Z,12.02
2022-09-28T23:29:54.371Z,12.03
2022-09-28T23:32:21.211Z,12.02
2022-09-28T23:34:48.056Z,12.02
2022-09-28T23:37:14.869Z,12.02
2022-09-28T23:39:42.372Z,12.02
2022-09-28T23:42:09.187Z,12.01
2022-09-28T23:44:36.539Z,12.00
2022-09-28T23:47:03.381Z,12.02
2022-09-28T23:49:30.543Z,12.03
2022-09-28T23:51:57.432Z,12.03
2022-09-28T23:54:24.209Z,12.01
2022-09-28T23:56:51.077Z,12.04
2022-09-28T23:59:17.868Z,12.03
